Time;durP1;ratioP1;P1;durP2;ratioP2;P2;SDS_P1;SDS_P2;PMS_P1;PMS_P2;Temp;Humidity;BMP_temperature;BMP_pressure;BME280_temperature;BME280_humidity;BME280_pressure;Samples;Min_cycle;Max_cycle;Signal;HPM_P1;HPM_P2
2022/12/08 00:01:20;;;;;;;17.60;11.60;;;1.80;99.90;;;;;;4968336;28;20963;-74
2022/12/08 00:03:47;;;;;;;19.63;12.27;;;1.80;99.90;;;;;;4969116;28;20454;-75
2022/12/08 00:09:24;;;;;;;22.93;11.87;;;1.80;99.90;;;;;;4969758;28;20461;-75
2022/12/08 00:11:53;;;;;;;20.87;12.97;;;1.80;99.90;;;;;;4969122;28;20453;-75
2022/12/08 00:14:22;;;;;;;19.50;12.20;;;1.80;99.90;;;;;;4969269;28;20453;-74
2022/12/08 00:16:49;;;;;;;22.70;12.20;;;1.80;99.90;;;;;;4971277;28;20453;-75
2022/12/08 00:19:15;;;;;;;19.67;11.37;;;1.80;99.90;;;;;;4972684;28;20457;-75
2022/12/08 00:21:42;;;;;;;21.57;11.93;;;1.80;99.90;;;;;;4972714;28;20951;-74
2022/12/08 00:24:09;;;;;;;20.83;12.13;;;1.80;99.90;;;;;;4972075;28;20475;-76
2022/12/08 00:26:38;;;;;;;22.60;11.73;;;1.80;99.90;;;;;;4972810;28;20972;-75
2022/12/08 00:29:05;;;;;;;21.40;11.73;;;1.70;99.90;;;;;;4972846;28;20461;-75
2022/12/08 00:31:32;;;;;;;26.53;12.57;;;1.70;99.90;;;;;;4973753;28;20467;-75
2022/12/08 00:33:59;;;;;;;23.90;11.90;;;1.80;99.90;;;;;;4975835;28;20460;-75
2022/12/08 00:36:26;;;;;;;21.87;11.37;;;1.80;99.90;;;;;;4973922;28;20454;-76
2022/12/08 00:38:53;;;;;;;20.37;11.40;;;1.90;99.90;;;;;;4956129;28;20463;-75
2022/12/08 00:42:10;;;;;;;18.20;12.60;;;2.00;99.90;;;;;;4976142;28;20459;-75
2022/12/08 00:44:12;;;;;;;23.33;12.93;;;1.80;99.90;;;;;;4974724;28;20453;-74
2022/12/08 00:46:39;;;;;;;20.87;10.50;;;2.00;99.90;;;;;;4973847;28;20468;-75
2022/12/08 00:49:06;;;;;;;18.13;12.40;;;2.00;99.90;;;;;;4973545;28;20464;-75
2022/12/08 00:51:34;;;;;;;20.77;11.17;;;2.10;99.90;;;;;;4973684;28;20450;-75
2022/12/08 00:54:01;;;;;;;20.80;12.37;;;2.00;99.90;;;;;;4972778;28;20471;-75
2022/12/08 00:56:28;;;;;;;22.93;10.67;;;1.90;99.90;;;;;;4972157;28;20516;-76
2022/12/08 00:58:55;;;;;;;19.80;11.27;;;1.80;99.90;;;;;;4972833;28;20545;-75
2022/12/08 01:01:24;;;;;;;14.70;9.57;;;1.80;99.90;;;;;;4972653;28;20457;-75
2022/12/08 01:03:51;;;;;;;19.00;10.30;;;1.70;99.90;;;;;;4973832;28;20634;-75
2022/12/08 01:06:18;;;;;;;17.50;11.00;;;1.70;99.90;;;;;;4973732;28;20485;-75
2022/12/08 01:08:45;;;;;;;18.50;11.17;;;1.90;99.90;;;;;;4975740;28;20846;-75
2022/12/08 01:11:14;;;;;;;18.27;9.97;;;1.80;99.90;;;;;;4975964;28;20489;-77
2022/12/08 01:13:41;;;;;;;20.97;12.70;;;1.70;99.90;;;;;;4978171;28;20550;-71
2022/12/08 01:16:08;;;;;;;18.90;12.40;;;1.60;99.90;;;;;;4976183;28;20571;-74
2022/12/08 01:18:37;;;;;;;17.43;10.30;;;1.50;99.90;;;;;;4975035;28;20459;-74
2022/12/08 01:21:04;;;;;;;17.60;10.90;;;1.50;99.90;;;;;;4971254;28;20454;-73
2022/12/08 01:23:31;;;;;;;21.87;11.17;;;1.60;99.90;;;;;;4971589;28;20450;-73
2022/12/08 01:26:02;;;;;;;26.00;13.10;;;1.70;99.90;;;;;;4970322;28;20526;-73
2022/12/08 01:28:29;;;;;;;19.93;10.90;;;1.50;99.90;;;;;;4970908;28;20453;-73
2022/12/08 01:30:56;;;;;;;19.73;9.60;;;1.40;99.90;;;;;;4971156;28;20457;-72
2022/12/08 01:33:23;;;;;;;17.03;9.80;;;1.50;99.90;;;;;;4971141;28;20450;-73
2022/12/08 01:35:51;;;;;;;18.10;10.90;;;1.60;99.90;;;;;;4970850;28;20449;-73
2022/12/08 01:38:18;;;;;;;20.60;11.23;;;1.50;99.90;;;;;;4970897;28;20450;-73
2022/12/08 01:40:45;;;;;;;16.10;11.10;;;1.60;99.90;;;;;;4970918;28;20962;-73
2022/12/08 01:43:15;;;;;;;22.97;12.63;;;1.50;99.90;;;;;;4971141;28;20457;-72
2022/12/08 01:45:43;;;;;;;20.60;11.30;;;1.40;99.90;;;;;;4970012;28;20552;-72
2022/12/08 01:48:16;;;;;;;20.30;11.50;;;1.30;99.90;;;;;;4972782;28;20976;-73
2022/12/08 01:50:44;;;;;;;20.10;11.30;;;1.30;99.90;;;;;;4972526;28;20456;-74
2022/12/08 01:53:16;;;;;;;19.00;10.40;;;1.30;99.90;;;;;;4971961;28;20968;-75
2022/12/08 01:55:47;;;;;;;17.37;10.77;;;1.30;99.90;;;;;;4973040;28;20536;-72
2022/12/08 01:58:19;;;;;;;17.23;10.13;;;1.30;99.90;;;;;;4973037;28;20453;-76
2022/12/08 02:00:46;;;;;;;20.53;10.73;;;1.40;99.90;;;;;;4970575;28;20446;-72
2022/12/08 02:03:16;;;;;;;20.40;11.17;;;1.30;99.90;;;;;;4970618;28;20484;-73
2022/12/08 02:05:45;;;;;;;23.50;11.63;;;1.30;99.90;;;;;;4970313;28;20584;-73
2022/12/08 02:08:14;;;;;;;17.83;9.80;;;1.30;99.90;;;;;;4970645;28;20457;-72
2022/12/08 02:10:42;;;;;;;19.90;11.03;;;1.40;99.90;;;;;;4970507;28;20885;-73
2022/12/08 02:13:13;;;;;;;18.13;11.17;;;1.50;99.90;;;;;;4970785;28;20454;-73
2022/12/08 02:15:52;;;;;;;18.77;12.07;;;1.40;99.90;;;;;;4970275;28;20857;-73
2022/12/08 02:18:42;;;;;;;22.10;11.33;;;1.40;99.90;;;;;;4969284;28;20963;-73
2022/12/08 02:21:12;;;;;;;22.53;10.20;;;1.30;99.90;;;;;;4970371;28;20487;-74
2022/12/08 02:23:51;;;;;;;17.47;12.07;;;1.30;99.90;;;;;;4970377;28;20950;-73
2022/12/08 02:26:46;;;;;;;18.93;11.63;;;1.20;99.90;;;;;;4970803;28;20493;-73
2022/12/08 02:30:07;;;;;;;17.13;9.90;;;1.10;99.90;;;;;;4970402;28;20929;-73
2022/12/08 02:33:09;;;;;;;16.63;9.57;;;1.10;99.90;;;;;;4903156;29;20464;-73
2022/12/08 02:35:46;;;;;;;20.33;11.37;;;1.40;99.90;;;;;;4891462;29;20823;-73
2022/12/08 02:38:21;;;;;;;21.20;11.37;;;1.40;99.90;;;;;;4935956;29;20825;-73
2022/12/08 02:40:56;;;;;;;16.97;10.70;;;1.30;99.90;;;;;;4950596;28;20863;-73
2022/12/08 02:43:29;;;;;;;16.50;10.47;;;1.30;99.90;;;;;;4951904;29;20825;-73
2022/12/08 02:46:01;;;;;;;18.23;9.73;;;1.40;99.90;;;;;;4950788;29;20494;-73
2022/12/08 02:48:28;;;;;;;22.27;11.53;;;1.60;99.90;;;;;;4950563;29;20457;-73
2022/12/08 02:50:57;;;;;;;27.20;12.73;;;1.70;99.90;;;;;;4949758;28;20471;-73
2022/12/08 02:53:23;;;;;;;20.40;10.87;;;1.70;99.90;;;;;;4969645;28;20446;-73
2022/12/08 02:56:01;;;;;;;24.23;12.77;;;1.60;99.90;;;;;;4969927;28;20679;-73
2022/12/08 02:58:52;;;;;;;21.80;10.97;;;1.60;99.90;;;;;;4970200;28;20863;-73
2022/12/08 03:01:34;;;;;;;20.03;10.80;;;1.70;99.90;;;;;;4969990;28;20827;-73
2022/12/08 03:04:09;;;;;;;20.27;11.17;;;1.50;99.90;;;;;;4969777;28;20449;-73
2022/12/08 03:06:47;;;;;;;15.63;10.77;;;1.50;99.90;;;;;;4970435;28;21136;-74
2022/12/08 03:09:18;;;;;;;20.53;12.80;;;1.40;99.90;;;;;;4972228;28;20540;-78
2022/12/08 03:11:53;;;;;;;19.33;10.70;;;1.30;99.90;;;;;;4977270;28;20489;-78
2022/12/08 03:14:21;;;;;;;19.97;11.20;;;1.30;99.90;;;;;;4976187;28;20892;-76
2022/12/08 03:16:52;;;;;;;23.37;11.20;;;1.60;99.90;;;;;;4977963;28;20460;-77
2022/12/08 03:19:23;;;;;;;17.27;11.13;;;1.50;99.90;;;;;;4979861;28;20473;-78
2022/12/08 03:21:59;;;;;;;30.30;16.00;;;1.40;99.90;;;;;;4979611;28;20454;-77
2022/12/08 03:24:26;;;;;;;20.80;11.40;;;1.30;99.90;;;;;;4974938;28;20461;-76
2022/12/08 03:26:57;;;;;;;23.23;12.60;;;1.20;99.90;;;;;;4973734;28;20556;-77
2022/12/08 03:29:25;;;;;;;23.50;13.20;;;1.20;99.90;;;;;;4974631;28;20551;-77
2022/12/08 03:31:55;;;;;;;18.63;11.13;;;1.30;99.90;;;;;;4975312;28;20544;-76
2022/12/08 03:34:25;;;;;;;20.53;10.97;;;1.50;99.90;;;;;;4975665;28;20520;-76
2022/12/08 03:36:53;;;;;;;21.60;11.63;;;1.60;99.90;;;;;;4975333;28;21077;-77
2022/12/08 03:39:21;;;;;;;21.67;14.10;;;1.30;99.90;;;;;;4979016;28;20473;-76
2022/12/08 03:41:48;;;;;;;19.03;12.30;;;1.60;99.90;;;;;;4975495;28;20473;-76
2022/12/08 03:44:15;;;;;;;23.10;13.47;;;1.10;99.90;;;;;;4975297;28;20817;-77
2022/12/08 03:46:41;;;;;;;21.50;11.67;;;1.20;99.90;;;;;;4974302;28;21226;-75
2022/12/08 03:49:08;;;;;;;18.80;11.37;;;1.20;99.90;;;;;;4969615;28;20549;-76
2022/12/08 03:51:35;;;;;;;20.93;10.97;;;1.10;99.90;;;;;;4964864;28;20906;-76
2022/12/08 03:54:04;;;;;;;24.50;12.40;;;1.20;99.90;;;;;;4973596;28;20469;-77
2022/12/08 03:56:34;;;;;;;22.50;11.60;;;1.20;99.90;;;;;;4973529;28;20477;-76
2022/12/08 03:59:01;;;;;;;18.90;11.50;;;1.30;99.90;;;;;;4972215;28;20896;-76
2022/12/08 04:01:28;;;;;;;21.50;11.53;;;1.40;99.90;;;;;;4972494;28;20533;-76
2022/12/08 04:03:55;;;;;;;28.93;13.00;;;1.30;99.90;;;;;;4968442;28;20938;-75
2022/12/08 04:06:23;;;;;;;18.67;10.30;;;1.40;99.90;;;;;;4973718;28;20544;-78
2022/12/08 04:08:50;;;;;;;19.03;11.63;;;1.40;99.90;;;;;;4973128;28;20474;-75
2022/12/08 04:11:19;;;;;;;18.73;11.33;;;1.30;99.90;;;;;;4973230;28;20541;-78
2022/12/08 04:13:47;;;;;;;22.97;11.13;;;1.20;99.90;;;;;;4973772;28;20481;-77
2022/12/08 04:16:16;;;;;;;21.53;11.90;;;1.10;99.90;;;;;;4972925;28;20620;-78
2022/12/08 04:18:43;;;;;;;16.80;11.23;;;1.20;99.90;;;;;;4970752;28;20960;-76
2022/12/08 04:21:11;;;;;;;24.47;11.80;;;1.20;99.90;;;;;;4973612;28;20488;-77
2022/12/08 04:23:38;;;;;;;23.10;12.00;;;1.40;99.90;;;;;;4975398;28;20489;-77
2022/12/08 04:26:06;;;;;;;23.70;11.77;;;1.40;99.90;;;;;;4974242;28;20572;-76
2022/12/08 04:28:35;;;;;;;23.57;11.60;;;1.50;99.90;;;;;;4972666;28;20456;-76
2022/12/08 04:31:03;;;;;;;21.20;13.03;;;1.40;99.90;;;;;;4974025;28;20536;-77
2022/12/08 04:33:29;;;;;;;22.87;13.07;;;1.30;99.90;;;;;;4972231;28;20560;-77
2022/12/08 04:35:56;;;;;;;23.80;12.40;;;1.20;99.90;;;;;;4972063;28;20442;-77
2022/12/08 04:38:24;;;;;;;26.40;12.97;;;1.20;99.90;;;;;;4972240;28;20464;-76
2022/12/08 04:40:51;;;;;;;19.30;10.93;;;1.10;99.90;;;;;;4972032;28;21013;-77
2022/12/08 04:43:19;;;;;;;24.20;11.83;;;1.20;99.90;;;;;;4972033;28;20451;-78
2022/12/08 04:45:47;;;;;;;24.17;11.90;;;1.50;99.90;;;;;;4971850;28;20613;-78
2022/12/08 04:48:14;;;;;;;25.13;14.37;;;1.30;99.90;;;;;;4973367;28;20866;-76
2022/12/08 04:50:43;;;;;;;22.73;12.40;;;1.30;99.90;;;;;;4973782;28;20469;-76
2022/12/08 04:53:11;;;;;;;16.20;10.83;;;1.20;99.90;;;;;;4975037;28;20449;-77
2022/12/08 04:55:40;;;;;;;19.17;10.77;;;1.30;99.90;;;;;;4974507;28;20552;-77
2022/12/08 04:58:07;;;;;;;22.03;11.77;;;1.40;99.90;;;;;;4974010;28;20457;-77
2022/12/08 05:00:34;;;;;;;26.80;14.53;;;1.30;99.90;;;;;;4977600;28;20457;-77
2022/12/08 05:03:03;;;;;;;28.60;12.47;;;1.30;99.90;;;;;;4973627;28;21012;-77
2022/12/08 05:05:30;;;;;;;19.70;12.10;;;1.20;99.90;;;;;;4973192;28;20449;-77
2022/12/08 05:07:59;;;;;;;19.73;11.80;;;1.40;99.90;;;;;;4970488;28;20552;-78
2022/12/08 05:10:26;;;;;;;29.30;13.40;;;1.30;99.90;;;;;;4975817;28;21005;-77
2022/12/08 05:12:53;;;;;;;22.80;13.27;;;1.20;99.90;;;;;;4972663;28;20520;-76
2022/12/08 05:15:20;;;;;;;27.00;13.60;;;1.20;99.90;;;;;;4972244;28;20493;-76
2022/12/08 05:17:47;;;;;;;26.10;12.93;;;1.20;99.90;;;;;;4972459;28;20831;-77
2022/12/08 05:20:17;;;;;;;23.00;12.80;;;1.40;99.90;;;;;;4973787;28;20702;-77
2022/12/08 05:22:44;;;;;;;25.73;12.30;;;1.40;99.90;;;;;;4975179;28;20813;-77
2022/12/08 05:25:11;;;;;;;21.90;12.67;;;1.40;99.90;;;;;;4976465;28;20854;-77
2022/12/08 05:27:38;;;;;;;26.47;12.37;;;1.40;99.90;;;;;;4973711;28;20547;-77
2022/12/08 05:30:07;;;;;;;21.70;12.87;;;1.40;99.90;;;;;;4974191;28;20490;-77
2022/12/08 05:32:34;;;;;;;23.67;12.37;;;1.30;99.90;;;;;;4956994;28;21141;-76
2022/12/08 05:35:01;;;;;;;26.63;13.07;;;1.30;99.90;;;;;;4957781;29;20454;-77
2022/12/08 05:37:30;;;;;;;22.20;12.57;;;1.30;99.90;;;;;;4958661;29;20458;-77
2022/12/08 05:39:57;;;;;;;24.93;13.10;;;1.20;99.90;;;;;;4954243;29;20537;-77
2022/12/08 05:42:24;;;;;;;19.80;12.13;;;1.20;99.90;;;;;;4972159;28;20484;-78
2022/12/08 05:44:51;;;;;;;24.13;12.07;;;1.30;99.90;;;;;;4971888;28;20480;-77
2022/12/08 05:47:18;;;;;;;25.00;13.93;;;1.30;99.90;;;;;;4966182;28;20503;-78
2022/12/08 05:49:45;;;;;;;19.93;12.90;;;1.30;99.90;;;;;;4955048;29;20462;-79
2022/12/08 05:52:13;;;;;;;25.67;13.87;;;1.30;99.90;;;;;;4953711;29;20489;-77
2022/12/08 05:54:42;;;;;;;21.40;12.60;;;1.30;99.90;;;;;;4953847;29;20720;-78
2022/12/08 05:57:12;;;;;;;30.40;13.07;;;1.30;99.90;;;;;;4952867;29;20454;-77
2022/12/08 05:59:40;;;;;;;23.30;14.40;;;1.30;99.90;;;;;;4970895;28;20515;-78
2022/12/08 06:02:08;;;;;;;22.93;13.40;;;1.20;99.90;;;;;;4971980;28;20465;-77
2022/12/08 06:04:38;;;;;;;21.10;12.40;;;1.30;99.90;;;;;;4971373;28;20463;-77
2022/12/08 06:07:05;;;;;;;23.70;13.33;;;1.30;99.90;;;;;;4969825;28;21004;-78
2022/12/08 06:09:32;;;;;;;18.40;11.43;;;1.30;99.90;;;;;;4972070;28;20533;-78
2022/12/08 06:12:10;;;;;;;23.83;13.03;;;1.30;99.90;;;;;;4968325;28;20470;-76
2022/12/08 06:14:48;;;;;;;19.00;12.13;;;1.30;99.90;;;;;;4951925;28;20521;-76
2022/12/08 06:17:20;;;;;;;29.23;13.80;;;1.30;99.90;;;;;;4966274;28;20461;-77
2022/12/08 06:19:52;;;;;;;22.73;13.00;;;1.30;99.90;;;;;;4971254;28;20544;-78
2022/12/08 06:22:25;;;;;;;22.47;11.97;;;1.30;99.90;;;;;;4971355;28;20446;-74
2022/12/08 06:24:52;;;;;;;21.03;13.20;;;1.30;99.90;;;;;;4970555;28;20498;-74
2022/12/08 06:27:20;;;;;;;21.23;12.57;;;2.40;99.90;;;;;;4966213;28;20478;-75
2022/12/08 06:29:47;;;;;;;19.30;11.70;;;1.30;99.90;;;;;;4967684;28;21032;-76
2022/12/08 06:32:14;;;;;;;20.07;12.00;;;1.30;99.90;;;;;;4968185;28;20457;-75
2022/12/08 06:34:40;;;;;;;21.37;11.73;;;1.30;99.90;;;;;;4967405;28;20995;-75
2022/12/08 06:37:14;;;;;;;18.40;11.43;;;1.30;99.90;;;;;;4969502;28;20973;-76
2022/12/08 06:39:44;;;;;;;24.57;13.73;;;1.30;99.90;;;;;;4967919;28;20450;-76
2022/12/08 06:45:05;;;;;;;23.83;14.00;;;1.20;99.90;;;;;;4972504;28;20437;-77
2022/12/08 06:47:32;;;;;;;21.23;13.63;;;1.20;99.90;;;;;;4972557;28;20485;-75
2022/12/08 06:49:59;;;;;;;22.93;12.23;;;1.20;99.90;;;;;;4968377;28;20822;-72
2022/12/08 06:52:25;;;;;;;19.50;12.07;;;1.30;99.90;;;;;;4969139;28;20461;-74
2022/12/08 06:54:52;;;;;;;23.13;14.10;;;1.20;99.90;;;;;;4968793;28;20541;-71
2022/12/08 06:57:19;;;;;;;17.83;12.57;;;1.30;99.90;;;;;;4968045;28;20990;-76
2022/12/08 06:59:46;;;;;;;27.60;13.70;;;1.30;99.90;;;;;;4969196;28;20829;-73
2022/12/08 07:02:16;;;;;;;21.40;12.53;;;1.30;99.90;;;;;;4967207;28;20807;-78
2022/12/08 07:04:42;;;;;;;21.00;12.97;;;1.30;99.90;;;;;;4967578;28;20456;-76
2022/12/08 07:07:10;;;;;;;16.90;10.87;;;1.30;99.90;;;;;;4960185;28;20580;-75
2022/12/08 07:09:37;;;;;;;21.00;12.43;;;1.40;99.90;;;;;;4969907;28;21008;-75
2022/12/08 07:12:04;;;;;;;19.97;13.47;;;1.80;99.90;;;;;;4969425;28;20816;-74
2022/12/08 07:14:31;;;;;;;24.10;14.03;;;1.50;99.90;;;;;;4969970;28;20545;-74
2022/12/08 07:16:59;;;;;;;18.20;11.00;;;1.40;99.90;;;;;;4970584;28;20466;-72
2022/12/08 07:19:29;;;;;;;20.00;12.40;;;1.60;99.90;;;;;;4970442;28;20462;-71
2022/12/08 07:21:56;;;;;;;24.63;12.33;;;1.60;99.90;;;;;;4969789;28;20539;-73
2022/12/08 07:24:23;;;;;;;23.93;13.10;;;1.70;99.90;;;;;;4968783;28;20470;-73
2022/12/08 07:29:32;;;;;;;23.73;13.70;;;1.70;99.90;;;;;;4967410;28;20470;-73
2022/12/08 07:31:59;;;;;;;25.00;14.40;;;1.80;99.90;;;;;;4959590;28;20905;-77
2022/12/08 07:34:26;;;;;;;33.90;13.40;;;1.80;99.90;;;;;;4950657;29;20778;-74
2022/12/08 07:36:59;;;;;;;21.43;11.50;;;1.80;99.90;;;;;;4967382;28;20493;-73
2022/12/08 07:39:26;;;;;;;26.60;14.67;;;1.80;99.90;;;;;;4971295;28;20516;-73
2022/12/08 07:41:53;;;;;;;24.80;12.83;;;1.90;99.90;;;;;;4972207;28;20454;-72
2022/12/08 07:44:20;;;;;;;20.70;12.50;;;1.80;99.90;;;;;;4972562;28;20485;-73
2022/12/08 07:46:46;;;;;;;26.03;13.47;;;1.90;99.90;;;;;;4970679;28;20485;-72
2022/12/08 07:49:13;;;;;;;29.23;13.73;;;2.50;99.90;;;;;;4970298;28;20446;-74
2022/12/08 07:51:40;;;;;;;24.90;13.90;;;2.00;99.90;;;;;;4975354;28;20984;-77
2022/12/08 07:54:11;;;;;;;21.03;12.90;;;2.20;99.90;;;;;;4971940;28;20457;-73
2022/12/08 07:56:40;;;;;;;24.10;14.17;;;1.90;99.90;;;;;;4970714;28;20463;-71
2022/12/08 07:59:07;;;;;;;23.60;13.43;;;1.90;99.90;;;;;;4971227;28;20458;-70
2022/12/08 08:01:35;;;;;;;31.50;16.20;;;2.00;99.90;;;;;;4966943;28;20454;-70
2022/12/08 08:04:04;;;;;;;30.63;14.43;;;2.10;99.90;;;;;;4971984;28;21029;-71
2022/12/08 08:06:32;;;;;;;25.93;14.53;;;2.10;99.90;;;;;;4972224;28;20544;-70
2022/12/08 08:08:59;;;;;;;25.23;12.87;;;2.20;99.90;;;;;;4955407;28;20566;-71
2022/12/08 08:11:27;;;;;;;21.93;12.77;;;2.20;99.90;;;;;;4951673;29;20450;-71
2022/12/08 08:13:57;;;;;;;28.43;14.67;;;2.30;99.90;;;;;;4963587;28;20492;-71
2022/12/08 08:16:24;;;;;;;24.93;13.17;;;2.40;99.90;;;;;;4969622;28;20481;-71
2022/12/08 08:18:52;;;;;;;22.23;13.00;;;2.60;99.90;;;;;;4969905;28;20466;-71
2022/12/08 08:21:24;;;;;;;23.80;15.23;;;2.40;99.90;;;;;;4971824;28;20465;-71
2022/12/08 08:23:51;;;;;;;24.17;14.80;;;2.50;99.90;;;;;;4973902;28;20456;-73
2022/12/08 08:26:17;;;;;;;21.50;14.63;;;2.40;99.90;;;;;;4977586;28;20453;-74
2022/12/08 08:28:47;;;;;;;27.60;16.13;;;2.30;99.90;;;;;;4976560;28;20459;-75
2022/12/08 08:31:14;;;;;;;24.30;15.30;;;2.20;99.90;;;;;;4975079;28;20469;-73
2022/12/08 08:33:41;;;;;;;29.63;14.93;;;2.10;99.90;;;;;;4973451;28;20464;-74
2022/12/08 08:36:08;;;;;;;34.13;14.40;;;2.10;99.90;;;;;;4970976;28;20457;-78
2022/12/08 08:38:38;;;;;;;28.37;15.10;;;2.20;99.90;;;;;;4971816;28;20459;-74
2022/12/08 08:41:08;;;;;;;27.83;14.80;;;2.40;99.90;;;;;;4972844;28;20457;-74
2022/12/08 08:43:35;;;;;;;25.23;13.20;;;2.70;99.90;;;;;;4972654;28;20450;-75
2022/12/08 08:46:05;;;;;;;19.47;13.40;;;2.90;99.90;;;;;;4971173;28;20473;-70
2022/12/08 08:48:32;;;;;;;25.73;14.17;;;2.80;99.90;;;;;;4972868;28;20553;-73
2022/12/08 08:51:06;;;;;;;25.53;14.70;;;3.00;99.90;;;;;;4972301;28;20460;-73
2022/12/08 08:53:33;;;;;;;31.90;17.00;;;2.90;99.90;;;;;;4973178;28;20849;-76
2022/12/08 08:56:00;;;;;;;28.57;15.73;;;2.60;99.90;;;;;;4972778;28;20471;-73
2022/12/08 08:58:27;;;;;;;29.23;13.53;;;2.50;99.90;;;;;;4972522;28;20858;-72
2022/12/08 09:00:54;;;;;;;24.97;13.40;;;2.80;99.90;;;;;;4972573;28;20470;-72
2022/12/08 09:03:22;;;;;;;21.77;13.47;;;3.10;99.90;;;;;;4971436;28;20951;-73
2022/12/08 09:05:50;;;;;;;31.53;14.70;;;3.30;99.90;;;;;;4971821;28;20541;-72
2022/12/08 09:08:17;;;;;;;23.37;13.07;;;3.10;99.90;;;;;;4971459;28;20493;-73
2022/12/08 09:10:44;;;;;;;24.47;14.90;;;3.00;99.90;;;;;;4971330;28;20488;-72
2022/12/08 09:13:11;;;;;;;21.30;13.67;;;3.20;99.90;;;;;;4971535;28;20969;-73
2022/12/08 09:15:38;;;;;;;23.17;13.47;;;3.50;99.90;;;;;;4971120;28;21116;-72
2022/12/08 09:18:06;;;;;;;23.20;13.10;;;3.60;99.90;;;;;;4971244;28;20462;-72
2022/12/08 09:20:35;;;;;;;25.37;13.77;;;3.60;99.90;;;;;;4970525;28;20470;-72
2022/12/08 09:23:02;;;;;;;24.20;13.30;;;3.70;99.90;;;;;;4964920;28;20873;-72
2022/12/08 09:25:29;;;;;;;24.93;13.40;;;3.70;99.90;;;;;;4957150;28;20529;-72
2022/12/08 09:27:56;;;;;;;22.23;12.90;;;3.70;99.90;;;;;;4971119;28;20513;-73
2022/12/08 09:30:22;;;;;;;28.90;12.57;;;3.70;99.90;;;;;;4968034;28;20966;-74
2022/12/08 09:32:49;;;;;;;28.67;16.60;;;3.70;99.90;;;;;;4970851;28;21002;-74
2022/12/08 09:35:16;;;;;;;23.83;14.23;;;3.80;99.90;;;;;;4969620;28;20488;-72
2022/12/08 09:37:44;;;;;;;23.40;14.00;;;4.00;99.90;;;;;;4970570;28;20824;-71
2022/12/08 09:40:16;;;;;;;30.40;19.67;;;3.90;99.90;;;;;;4970909;28;20457;-71
2022/12/08 09:42:50;;;;;;;22.87;13.83;;;4.00;99.90;;;;;;4969339;28;20840;-73
2022/12/08 09:45:18;;;;;;;26.33;15.40;;;3.40;99.90;;;;;;4971163;28;20554;-71
2022/12/08 09:47:55;;;;;;;24.97;14.53;;;3.50;99.90;;;;;;4970432;28;20544;-72
2022/12/08 09:50:31;;;;;;;25.60;16.23;;;3.80;99.90;;;;;;4970103;28;20454;-75
2022/12/08 09:53:03;;;;;;;24.30;15.50;;;3.40;99.90;;;;;;4972558;28;20552;-73
2022/12/08 09:55:40;;;;;;;26.33;15.20;;;3.10;99.90;;;;;;4973196;28;20454;-72
2022/12/08 09:58:15;;;;;;;29.43;15.40;;;3.40;99.90;;;;;;4972257;28;20514;-72
2022/12/08 10:00:42;;;;;;;28.77;15.97;;;3.00;99.90;;;;;;4965930;28;21146;-73
2022/12/08 10:03:11;;;;;;;26.30;16.00;;;3.00;99.90;;;;;;4960088;28;20465;-72
2022/12/08 10:05:46;;;;;;;21.47;13.33;;;2.90;99.90;;;;;;4956467;28;20897;-72
2022/12/08 10:08:20;;;;;;;23.27;14.10;;;3.20;99.90;;;;;;4970047;28;20489;-73
2022/12/08 10:10:52;;;;;;;23.87;13.27;;;3.60;99.90;;;;;;4968844;28;20482;-73
2022/12/08 10:13:25;;;;;;;23.30;14.87;;;3.90;99.90;;;;;;4962123;28;20457;-71
2022/12/08 10:16:04;;;;;;;25.13;13.50;;;4.20;99.90;;;;;;4950976;28;20534;-73
2022/12/08 10:18:34;;;;;;;26.33;15.17;;;4.30;99.90;;;;;;4954267;28;20474;-72
2022/12/08 10:21:14;;;;;;;31.13;14.73;;;4.40;99.90;;;;;;4958460;28;20548;-71
2022/12/08 10:23:46;;;;;;;27.37;13.97;;;4.40;99.90;;;;;;4951778;28;20489;-71
2022/12/08 10:26:15;;;;;;;20.30;12.93;;;4.40;99.90;;;;;;4955101;28;20469;-72
2022/12/08 10:28:42;;;;;;;26.37;14.57;;;4.40;99.90;;;;;;4969942;28;20489;-72
2022/12/08 10:31:16;;;;;;;26.40;15.60;;;4.10;99.90;;;;;;4969751;28;20446;-73
2022/12/08 10:33:43;;;;;;;23.40;14.10;;;4.20;99.90;;;;;;4969358;28;20779;-73
2022/12/08 10:36:11;;;;;;;21.57;13.43;;;4.20;99.90;;;;;;4969583;28;20540;-73
2022/12/08 10:38:39;;;;;;;24.80;13.93;;;4.30;99.90;;;;;;4969833;28;20942;-73
2022/12/08 10:41:16;;;;;;;25.17;14.20;;;4.30;99.90;;;;;;4969700;28;21005;-73
2022/12/08 10:43:47;;;;;;;26.87;13.53;;;4.20;99.90;;;;;;4968915;28;20981;-73
2022/12/08 10:46:17;;;;;;;27.47;14.83;;;4.20;99.90;;;;;;4957503;28;20463;-72
2022/12/08 10:48:52;;;;;;;32.93;13.87;;;4.20;99.90;;;;;;4950431;29;20494;-72
2022/12/08 10:51:28;;;;;;;24.63;15.10;;;4.40;99.90;;;;;;4950654;29;20480;-72
2022/12/08 10:53:55;;;;;;;23.10;13.00;;;4.50;99.90;;;;;;4964405;28;20644;-71
2022/12/08 10:56:28;;;;;;;29.13;14.97;;;4.60;99.90;;;;;;4969535;28;20454;-73
2022/12/08 10:59:07;;;;;;;26.23;14.90;;;4.90;99.90;;;;;;4968761;28;20469;-71
2022/12/08 11:01:38;;;;;;;29.33;14.10;;;4.90;99.90;;;;;;4966328;28;20572;-72
2022/12/08 11:04:11;;;;;;;23.47;14.67;;;5.10;99.90;;;;;;4968107;28;20799;-72
2022/12/08 11:06:40;;;;;;;27.20;13.80;;;4.90;99.90;;;;;;4960388;28;20859;-75
2022/12/08 11:09:23;;;;;;;27.23;13.73;;;4.80;99.90;;;;;;4949901;28;20563;-71
2022/12/08 11:11:53;;;;;;;24.17;14.37;;;4.90;99.90;;;;;;4949903;28;20466;-71
2022/12/08 11:14:24;;;;;;;20.67;14.30;;;4.80;99.90;;;;;;4950719;28;21001;-73
2022/12/08 11:16:55;;;;;;;20.53;14.03;;;4.90;99.90;;;;;;4967189;28;20848;-72
2022/12/08 11:19:26;;;;;;;22.33;13.70;;;4.90;99.90;;;;;;4949942;28;20482;-71
2022/12/08 11:21:53;;;;;;;23.10;13.97;;;4.90;99.90;;;;;;4962335;28;20900;-71
2022/12/08 11:24:26;;;;;;;25.50;16.20;;;4.80;99.90;;;;;;4949553;29;20450;-72
2022/12/08 11:27:01;;;;;;;25.73;14.30;;;4.00;99.90;;;;;;4949661;29;20451;-73
2022/12/08 11:29:29;;;;;;;19.70;14.00;;;4.10;99.90;;;;;;4955269;28;20484;-73
2022/12/08 11:32:00;;;;;;;23.27;14.47;;;4.40;99.90;;;;;;4967525;28;20532;-73
2022/12/08 11:34:34;;;;;;;24.57;14.93;;;4.70;99.90;;;;;;4968623;28;20537;-72
2022/12/08 11:37:03;;;;;;;22.03;13.67;;;5.10;99.90;;;;;;4968307;28;20460;-72
2022/12/08 11:39:34;;;;;;;24.93;14.03;;;5.50;99.90;;;;;;4951486;28;20971;-72
2022/12/08 11:42:07;;;;;;;24.10;14.63;;;5.70;99.90;;;;;;4957794;28;20953;-72
2022/12/08 11:44:39;;;;;;;21.80;13.90;;;5.60;99.90;;;;;;4957590;28;20503;-72
2022/12/08 11:47:12;;;;;;;22.43;13.90;;;5.50;99.90;;;;;;4959682;28;20462;-70
2022/12/08 11:49:41;;;;;;;23.10;13.53;;;5.70;99.90;;;;;;4959617;28;20590;-70
2022/12/08 11:52:17;;;;;;;23.70;15.23;;;5.50;99.90;;;;;;4967697;28;20557;-72
2022/12/08 11:54:50;;;;;;;23.97;14.07;;;5.50;99.90;;;;;;4968021;28;21194;-72
2022/12/08 11:57:24;;;;;;;26.03;15.27;;;5.50;99.90;;;;;;4967560;28;20445;-71
2022/12/08 11:59:54;;;;;;;23.27;13.90;;;5.40;99.90;;;;;;4967741;28;20450;-72
2022/12/08 12:02:24;;;;;;;24.40;13.93;;;5.50;99.90;;;;;;4967255;28;20462;-73
2022/12/08 12:04:55;;;;;;;19.87;12.77;;;5.50;99.90;;;;;;4966925;28;20972;-74
2022/12/08 12:08:03;;;;;;;28.80;14.07;;;5.40;99.90;;;;;;4965851;28;20468;-75
2022/12/08 12:10:47;;;;;;;23.10;13.57;;;5.10;99.90;;;;;;4928394;28;20524;-72
2022/12/08 12:13:41;;;;;;;27.50;13.30;;;5.00;99.90;;;;;;4967071;28;20549;-72
2022/12/08 12:16:29;;;;;;;21.83;14.10;;;4.90;99.90;;;;;;4969723;28;20576;-72
2022/12/08 12:18:59;;;;;;;19.13;12.83;;;4.80;99.90;;;;;;4970581;28;20458;-71
2022/12/08 12:21:33;;;;;;;21.40;13.80;;;4.80;99.90;;;;;;4969835;28;21004;-71
2022/12/08 12:24:05;;;;;;;21.40;15.17;;;4.40;99.90;;;;;;4959805;28;20451;-69
2022/12/08 12:26:36;;;;;;;21.80;14.50;;;4.30;99.90;;;;;;4952536;29;20472;-70
2022/12/08 12:29:07;;;;;;;21.60;12.63;;;4.30;99.90;;;;;;4959483;28;20581;-71
2022/12/08 12:31:40;;;;;;;36.13;17.83;;;4.30;99.90;;;;;;4951546;28;20455;-70
2022/12/08 12:34:14;;;;;;;23.80;13.47;;;4.40;99.90;;;;;;4951235;29;20995;-70
2022/12/08 12:36:50;;;;;;;24.50;16.10;;;4.40;99.90;;;;;;4952639;28;20470;-70
2022/12/08 12:39:20;;;;;;;20.33;12.83;;;4.40;99.90;;;;;;4951798;28;21053;-70
2022/12/08 12:41:52;;;;;;;23.43;14.37;;;4.50;99.90;;;;;;4968622;28;20523;-70
2022/12/08 12:44:42;;;;;;;19.70;13.47;;;4.30;99.90;;;;;;4971276;28;20493;-69
2022/12/08 12:47:14;;;;;;;20.80;13.20;;;4.20;99.90;;;;;;4971267;28;20954;-73
2022/12/08 12:49:52;;;;;;;22.67;14.07;;;4.30;99.90;;;;;;4971217;28;20814;-69
2022/12/08 12:52:37;;;;;;;17.60;11.63;;;4.50;99.90;;;;;;4970030;28;20557;-69
2022/12/08 12:55:23;;;;;;;23.30;12.80;;;4.50;99.90;;;;;;4962119;28;20457;-70
2022/12/08 12:57:52;;;;;;;23.47;13.20;;;4.70;99.90;;;;;;4958498;28;20534;-70
2022/12/08 13:00:22;;;;;;;22.20;13.80;;;4.80;99.90;;;;;;4969088;28;20446;-71
2022/12/08 13:02:51;;;;;;;20.93;13.20;;;4.70;99.90;;;;;;4951368;29;20446;-71